Portada
METAR-TAF:

METAR-TAF

Aeroports :

Oswego County Airport

Fulton, Nova York, Estats Units d'Amèrica

latitud: 43-21-03N, longitud: 076-23-17W, altitud: 145 m

Observació

L'informe es va fer fa 1 hora i 2 minuts, a les 20:54 UTC
Vent 10 kt del Sud amb ràfegues de 15 kt
Temperatura 28°C
Humitat 37%
Pressió 1018 hPa
Visibilitat: 16.1 km
Escasses núvols a una alçada de 11000 ft

METAR: KFZY 242054Z AUTO 17010G15KT 10SM FEW110 28/12 A3006 RMK AO2 SLP177 T02780122 56015

Hora: 17:56 (21:56 UTC)


TAF: manca

Observacions i pronòstics meteorològics de més de 4000 aeroports (METAR i TAF).

Les estacions disponibles són els punts grocs i vermells al mapa.

Posi el ratolí al punt desitjat per veure el nom de l'estació.

Feu clic per veure les observacions i els pronòstics meteorològics.

Per canviar el mapa: feu clic els botons verds amb una creu de color negre per apropar; al botó verd amb un guió per allunyar la imatge; o en les fletxes verdes per a mapes adjacents.


METAR-TAF: